createdAt,value
2017-08-29T06:04:17.126Z,101152.06
2017-08-29T06:06:19.594Z,101156.64
2017-08-29T06:08:22.072Z,101146.46
2017-08-29T06:10:24.676Z,101149.98
2017-08-29T06:12:27.146Z,101151.13
2017-08-29T06:14:29.621Z,101141.63
2017-08-29T06:16:32.186Z,101143.88
2017-08-29T06:18:34.646Z,101146.16
2017-08-29T06:20:37.107Z,101147.79
2017-08-29T06:22:39.656Z,101143.97
2017-08-29T06:24:42.113Z,101141.83
2017-08-29T06:26:44.595Z,101136.55
2017-08-29T06:28:47.175Z,101135.59
2017-08-29T06:30:49.667Z,101136.21
2017-08-29T06:32:52.141Z,101138.13
2017-08-29T06:34:54.785Z,101136.72
2017-08-29T06:36:57.237Z,101128.34
2017-08-29T06:38:59.720Z,101130.56
2017-08-29T06:41:02.265Z,101128.40
2017-08-29T06:43:04.756Z,101133.73
2017-08-29T06:45:07.992Z,101126.69
2017-08-29T06:47:10.542Z,101125.81
2017-08-29T06:49:13.035Z,101126.20
2017-08-29T06:51:15.507Z,101130.73
2017-08-29T06:53:18.073Z,101128.87
2017-08-29T06:55:20.548Z,101127.28
2017-08-29T06:57:23.074Z,101122.69
2017-08-29T06:59:25.616Z,101123.45
2017-08-29T07:01:28.083Z,101128.56
2017-08-29T07:03:30.560Z,101122.16
2017-08-29T07:05:33.150Z,101115.05
2017-08-29T07:07:35.623Z,101122.97
2017-08-29T07:09:38.103Z,101128.00
2017-08-29T07:11:40.732Z,101117.09
2017-08-29T07:13:43.224Z,101119.78
2017-08-29T07:15:45.682Z,101122.83
2017-08-29T07:17:48.235Z,101123.50
2017-08-29T07:19:50.705Z,101127.21
2017-08-29T07:21:53.157Z,101125.58
2017-08-29T07:23:55.677Z,101127.06
2017-08-29T07:25:58.149Z,101130.44
2017-08-29T07:28:00.629Z,101123.41
2017-08-29T07:30:03.173Z,101121.77
2017-08-29T07:32:05.667Z,101129.50
2017-08-29T07:34:08.155Z,101122.72
2017-08-29T07:36:10.705Z,101128.11
2017-08-29T07:38:13.223Z,101130.10
2017-08-29T07:40:15.700Z,101124.55
2017-08-29T07:42:18.250Z,101124.72
2017-08-29T07:44:20.743Z,101118.95
2017-08-29T07:46:23.216Z,101117.22
2017-08-29T07:48:25.819Z,101121.27
2017-08-29T07:50:28.414Z,101116.42
2017-08-29T07:52:30.892Z,101117.11
2017-08-29T07:54:33.505Z,101118.76
2017-08-29T07:56:35.971Z,101115.26
2017-08-29T07:58:38.494Z,101110.19
2017-08-29T08:00:41.047Z,101103.56
2017-08-29T08:02:43.555Z,101109.64
2017-08-29T08:04:46.014Z,101105.30
2017-08-29T08:06:48.553Z,101108.27
2017-08-29T08:08:51.024Z,101109.78
2017-08-29T08:10:53.476Z,101106.41
2017-08-29T08:12:56.658Z,101107.67
2017-08-29T08:14:59.132Z,101113.83
2017-08-29T08:17:01.600Z,101123.83
2017-08-29T08:19:04.782Z,101117.54
2017-08-29T08:21:07.257Z,101119.81
2017-08-29T08:23:09.826Z,101118.71
2017-08-29T08:25:12.408Z,101111.06
2017-08-29T08:27:14.896Z,101110.22
2017-08-29T08:29:17.421Z,101113.50
2017-08-29T08:31:19.973Z,101111.81
2017-08-29T08:33:22.445Z,101110.66
2017-08-29T08:35:24.924Z,101106.51
2017-08-29T08:37:27.448Z,101110.23
2017-08-29T08:39:29.906Z,101108.70
2017-08-29T08:41:32.379Z,101111.00
2017-08-29T08:43:34.940Z,101099.08
2017-08-29T08:45:37.430Z,101097.42
2017-08-29T08:47:39.946Z,101093.21
2017-08-29T08:49:42.484Z,101105.20
2017-08-29T08:51:44.954Z,101098.96
2017-08-29T08:53:47.425Z,101094.27
2017-08-29T08:55:49.973Z,101102.75
2017-08-29T08:57:52.451Z,101091.33
2017-08-29T08:59:54.949Z,101088.25
2017-08-29T09:01:57.562Z,101096.86
2017-08-29T09:04:00.033Z,101086.70
2017-08-29T09:06:02.552Z,101086.93
2017-08-29T09:08:05.112Z,101077.56
2017-08-29T09:10:07.584Z,101070.65
2017-08-29T09:12:10.463Z,101069.20
2017-08-29T09:14:13.038Z,101069.70
2017-08-29T09:16:15.516Z,101069.74
2017-08-29T09:18:17.986Z,101068.33
2017-08-29T09:20:20.658Z,101062.16
2017-08-29T09:22:23.160Z,101059.78
2017-08-29T09:24:26.110Z,101059.52
2017-08-29T09:26:28.706Z,101058.91
2017-08-29T09:28:31.180Z,101062.25
2017-08-29T09:30:33.763Z,101063.05
2017-08-29T09:32:36.292Z,101071.66
2017-08-29T09:34:38.803Z,101056.36
2017-08-29T09:36:41.345Z,101050.08
2017-08-29T09:38:43.876Z,101052.30
2017-08-29T09:40:46.367Z,101061.16
2017-08-29T09:42:48.838Z,101059.12
2017-08-29T09:44:51.382Z,101049.52
2017-08-29T09:46:53.902Z,101052.34
2017-08-29T09:48:56.393Z,101051.56
2017-08-29T09:50:58.928Z,101056.16
2017-08-29T09:53:01.465Z,101052.19
2017-08-29T09:55:03.973Z,101046.23
2017-08-29T09:57:06.506Z,101046.23
2017-08-29T09:59:08.976Z,101044.42
2017-08-29T10:01:11.445Z,101032.94
2017-08-29T10:03:13.994Z,101041.41
2017-08-29T10:05:16.488Z,101036.58
2017-08-29T10:07:18.964Z,101034.02
2017-08-29T10:09:21.505Z,101027.34
2017-08-29T10:11:23.990Z,101034.06
2017-08-29T10:13:26.472Z,101039.73
2017-08-29T10:15:29.043Z,101034.63
2017-08-29T10:17:31.548Z,101037.05
2017-08-29T10:19:34.013Z,101037.06
2017-08-29T10:21:36.548Z,101036.01
2017-08-29T10:23:39.017Z,101029.23
2017-08-29T10:25:41.501Z,101030.19
2017-08-29T10:27:44.065Z,101030.02
2017-08-29T10:29:46.596Z,101033.23
2017-08-29T10:31:49.078Z,101023.95
2017-08-29T10:33:51.624Z,101012.87
2017-08-29T10:35:54.102Z,101018.70
2017-08-29T10:37:56.727Z,101012.94
2017-08-29T10:39:59.278Z,101010.61
2017-08-29T10:42:01.774Z,101015.23
2017-08-29T10:44:04.248Z,101008.29
2017-08-29T10:46:06.822Z,101011.45
2017-08-29T10:48:09.341Z,101007.29
2017-08-29T10:50:11.938Z,101003.08
2017-08-29T10:52:14.485Z,101002.31
2017-08-29T10:54:16.963Z,101002.13
2017-08-29T10:56:19.455Z,100994.91
2017-08-29T10:58:22.045Z,100982.23
2017-08-29T11:00:24.535Z,100983.94
2017-08-29T11:02:27.050Z,100983.98
2017-08-29T11:04:29.585Z,100982.20
2017-08-29T11:06:32.141Z,100977.02
2017-08-29T11:08:34.611Z,100978.20
2017-08-29T11:10:37.169Z,100974.48
2017-08-29T11:12:39.620Z,100974.09
2017-08-29T11:14:42.129Z,100973.29
2017-08-29T11:16:44.683Z,100974.94
2017-08-29T11:18:47.154Z,100971.58
2017-08-29T11:20:49.624Z,100965.13
2017-08-29T11:22:52.168Z,100972.22
2017-08-29T11:24:54.655Z,100974.94
2017-08-29T11:26:57.148Z,100961.24
2017-08-29T11:28:59.693Z,100968.81
2017-08-29T11:31:02.205Z,100964.92
2017-08-29T11:33:04.748Z,100975.53
2017-08-29T11:35:07.294Z,100967.82
2017-08-29T11:37:09.788Z,100973.93
2017-08-29T11:39:12.269Z,100975.44
2017-08-29T11:41:14.842Z,100973.93
2017-08-29T11:43:17.317Z,100962.18
2017-08-29T11:45:19.822Z,100956.83
2017-08-29T11:47:22.378Z,100958.44
2017-08-29T11:49:27.394Z,100959.98
2017-08-29T11:51:30.568Z,100957.04
2017-08-29T11:53:33.116Z,100950.00
2017-08-29T11:55:35.618Z,100944.81
2017-08-29T11:57:38.133Z,100940.94
2017-08-29T11:59:40.727Z,100943.59
2017-08-29T12:01:43.193Z,100944.72
2017-08-29T12:03:45.665Z,100934.84
2017-08-29T12:05:48.235Z,100927.36
2017-08-29T12:07:50.725Z,100931.88
2017-08-29T12:09:53.251Z,100936.06
2017-08-29T12:11:55.774Z,100928.75
2017-08-29T12:13:58.261Z,100934.38
2017-08-29T12:16:00.753Z,100931.09
2017-08-29T12:18:03.308Z,100927.67
2017-08-29T12:20:05.798Z,100928.05
2017-08-29T12:22:08.317Z,100929.91
2017-08-29T12:24:10.869Z,100925.63
2017-08-29T12:26:13.348Z,100925.41
2017-08-29T12:28:15.846Z,100922.34
2017-08-29T12:30:18.382Z,100923.15
2017-08-29T12:32:20.875Z,100915.88
2017-08-29T12:34:23.390Z,100920.55
2017-08-29T12:36:25.918Z,100915.08
2017-08-29T12:38:28.392Z,100908.98
2017-08-29T12:40:30.882Z,100905.43
2017-08-29T12:42:33.419Z,100910.77
2017-08-29T12:44:35.893Z,100907.70
2017-08-29T12:46:38.353Z,100907.33
2017-08-29T12:48:40.897Z,100903.98
2017-08-29T12:50:43.392Z,100904.16
2017-08-29T12:52:45.942Z,100895.63
2017-08-29T12:54:48.492Z,100891.49
2017-08-29T12:56:50.988Z,100895.83
2017-08-29T12:58:53.481Z,100894.95
2017-08-29T13:00:56.021Z,100886.11
2017-08-29T13:02:58.502Z,100882.79
2017-08-29T13:05:00.981Z,100885.33
2017-08-29T13:07:03.507Z,100877.75
2017-08-29T13:09:06.004Z,100876.55
2017-08-29T13:11:08.538Z,100871.39
2017-08-29T13:13:11.080Z,100868.19
2017-08-29T13:15:13.592Z,100858.88
2017-08-29T13:17:16.077Z,100858.55
2017-08-29T13:19:18.636Z,100856.62
2017-08-29T13:21:21.144Z,100854.05
2017-08-29T13:23:23.649Z,100859.91
2017-08-29T13:25:26.195Z,100859.73
2017-08-29T13:27:28.678Z,100867.43
2017-08-29T13:29:31.167Z,100867.05
2017-08-29T13:31:33.745Z,100862.95
2017-08-29T13:33:36.227Z,100854.41
2017-08-29T13:35:38.716Z,100844.85
2017-08-29T13:37:41.251Z,100847.25
2017-08-29T13:39:43.726Z,100852.02
2017-08-29T13:41:46.194Z,100847.95
2017-08-29T13:43:48.766Z,100851.91
2017-08-29T13:45:51.259Z,100841.63
2017-08-29T13:47:53.790Z,100842.64
2017-08-29T13:49:56.399Z,100827.34
2017-08-29T13:51:58.869Z,100825.80
2017-08-29T13:54:01.346Z,100823.81
2017-08-29T13:56:03.867Z,100815.63
2017-08-29T13:58:06.389Z,100813.63
2017-08-29T14:00:08.855Z,100816.09
2017-08-29T14:02:11.573Z,100817.88
2017-08-29T14:04:14.057Z,100815.05
2017-08-29T14:06:16.530Z,100813.55
2017-08-29T14:08:19.101Z,100813.11
2017-08-29T14:10:21.605Z,100812.53
2017-08-29T14:12:24.079Z,100808.98
2017-08-29T14:14:27.018Z,100810.26
2017-08-29T14:16:29.556Z,100799.14
2017-08-29T14:18:32.050Z,100798.17
2017-08-29T14:20:34.610Z,100799.80
2017-08-29T14:22:37.090Z,100807.42
2017-08-29T14:24:39.585Z,100796.14
2017-08-29T14:26:42.149Z,100796.14
2017-08-29T14:28:44.627Z,100791.23
2017-08-29T14:30:47.095Z,100788.48
2017-08-29T14:32:49.646Z,100787.25
2017-08-29T14:34:52.123Z,100792.92
2017-08-29T14:36:54.653Z,100788.06
2017-08-29T14:38:57.213Z,100794.05
2017-08-29T14:40:59.742Z,100790.63
2017-08-29T14:43:02.250Z,100788.63
2017-08-29T14:45:04.791Z,100781.14
2017-08-29T14:47:19.159Z,100783.02
2017-08-29T14:49:21.642Z,100782.09
2017-08-29T14:51:24.262Z,100780.63
2017-08-29T14:53:26.738Z,100780.09
2017-08-29T14:55:29.246Z,100782.09
2017-08-29T14:57:31.798Z,100777.43
2017-08-29T14:59:34.271Z,100782.16
2017-08-29T15:01:36.764Z,100780.03
2017-08-29T15:03:39.309Z,100773.02
2017-08-29T15:05:41.809Z,100772.05
2017-08-29T15:07:44.285Z,100761.09
2017-08-29T15:09:46.836Z,100761.48
2017-08-29T15:11:49.319Z,100768.09
2017-08-29T15:13:51.797Z,100762.97
2017-08-29T15:15:55.543Z,100772.96
2017-08-29T15:17:58.024Z,100772.42
2017-08-29T15:20:00.581Z,100773.39
2017-08-29T15:22:03.150Z,100772.30
2017-08-29T15:24:05.645Z,100767.31
2017-08-29T15:26:08.129Z,100765.45
2017-08-29T15:28:10.818Z,100767.31
2017-08-29T15:30:14.679Z,100767.98
2017-08-29T15:32:17.894Z,100760.19
2017-08-29T15:34:20.437Z,100760.19
2017-08-29T15:36:22.934Z,100757.77
2017-08-29T15:38:25.425Z,100763.82
2017-08-29T15:40:27.957Z,100762.84
2017-08-29T15:42:30.470Z,100759.56
2017-08-29T15:44:32.957Z,100756.69
2017-08-29T15:46:35.518Z,100749.70
2017-08-29T15:48:38.003Z,100746.84
2017-08-29T15:50:40.468Z,100749.39
2017-08-29T15:52:43.032Z,100751.55
2017-08-29T15:54:45.559Z,100748.53
2017-08-29T15:56:48.022Z,100744.39
2017-08-29T15:58:50.583Z,100742.14
2017-08-29T16:00:53.061Z,100746.97
2017-08-29T16:02:55.595Z,100740.77
2017-08-29T16:04:58.322Z,100734.45
2017-08-29T16:07:00.793Z,100735.33
2017-08-29T16:09:03.350Z,100730.83
2017-08-29T16:11:05.901Z,100735.66
2017-08-29T16:13:08.377Z,100733.64
2017-08-29T16:15:10.866Z,100736.55
2017-08-29T16:17:13.492Z,100739.40
2017-08-29T16:19:15.974Z,100728.69
2017-08-29T16:21:18.441Z,100730.31
2017-08-29T16:23:20.991Z,100728.16
2017-08-29T16:25:23.523Z,100728.33
2017-08-29T16:27:25.985Z,100728.41
2017-08-29T16:29:28.532Z,100732.28
2017-08-29T16:31:31.001Z,100734.86
2017-08-29T16:33:33.473Z,100733.23
2017-08-29T16:35:36.033Z,100732.16
2017-08-29T16:37:38.496Z,100730.41
2017-08-29T16:39:41.020Z,100733.13
2017-08-29T16:41:43.593Z,100734.44
2017-08-29T16:43:46.104Z,100734.86
2017-08-29T16:45:48.590Z,100728.70
2017-08-29T16:47:51.119Z,100725.55
2017-08-29T16:49:53.624Z,100723.50
2017-08-29T16:51:56.104Z,100722.83
2017-08-29T16:53:58.641Z,100721.70
2017-08-29T16:56:01.109Z,100721.92
2017-08-29T16:58:03.629Z,100723.58
2017-08-29T17:00:06.153Z,100720.88
2017-08-29T17:02:08.691Z,100728.16
2017-08-29T17:04:11.279Z,100723.07
2017-08-29T17:06:13.902Z,100724.74
2017-08-29T17:08:16.392Z,100718.90
2017-08-29T17:10:18.905Z,100718.08
2017-08-29T17:12:21.459Z,100718.59
2017-08-29T17:14:23.976Z,100713.53
2017-08-29T17:16:26.459Z,100707.98
2017-08-29T17:18:29.099Z,100711.80
2017-08-29T17:20:31.582Z,100714.11
2017-08-29T17:22:34.044Z,100715.09
2017-08-29T17:24:36.593Z,100716.82
2017-08-29T17:26:39.058Z,100719.31
2017-08-29T17:28:41.549Z,100717.82
2017-08-29T17:30:44.086Z,100717.47
2017-08-29T17:32:46.769Z,100716.84
2017-08-29T17:34:49.275Z,100716.61
2017-08-29T17:36:51.822Z,100717.73
2017-08-29T17:38:54.305Z,100717.79
2017-08-29T17:40:56.824Z,100714.92
2017-08-29T17:42:59.363Z,100714.63
2017-08-29T17:45:01.839Z,100718.63
2017-08-29T17:47:04.309Z,100713.27
2017-08-29T17:49:06.847Z,100714.50
2017-08-29T17:51:09.383Z,100717.59
2017-08-29T17:53:11.861Z,100719.60
2017-08-29T17:55:14.411Z,100714.64
2017-08-29T17:57:16.894Z,100720.75
2017-08-29T17:59:19.391Z,100723.02
2017-08-29T18:01:21.961Z,100712.98
2017-08-29T18:03:24.440Z,100712.30
2017-08-29T18:05:26.996Z,100712.30
2017-08-29T18:07:30.703Z,100709.52
2017-08-29T18:09:33.225Z,100708.69
2017-08-29T18:11:35.693Z,100711.10
2017-08-29T18:13:38.262Z,100716.23
2017-08-29T18:15:40.798Z,100710.98
2017-08-29T18:17:43.275Z,100709.26
2017-08-29T18:19:46.242Z,100707.45
2017-08-29T18:21:48.725Z,100711.47
2017-08-29T18:23:51.222Z,100718.53
2017-08-29T18:25:53.779Z,100712.28
2017-08-29T18:27:56.279Z,100700.65
2017-08-29T18:29:58.781Z,100704.25
2017-08-29T18:32:01.357Z,100702.64
2017-08-29T18:34:03.956Z,100703.03
2017-08-29T18:36:06.455Z,100698.92
2017-08-29T18:38:10.446Z,100700.91
2017-08-29T18:40:13.007Z,100699.81
2017-08-29T18:42:15.486Z,100696.41
2017-08-29T18:44:18.035Z,100697.97
2017-08-29T18:46:20.516Z,100702.17
2017-08-29T18:48:22.989Z,100701.61
2017-08-29T18:50:25.625Z,100700.88
2017-08-29T18:52:28.105Z,100702.89
2017-08-29T18:54:30.593Z,100706.17
2017-08-29T18:56:33.181Z,100699.95
2017-08-29T18:58:35.671Z,100701.70
2017-08-29T19:00:38.158Z,100706.15
2017-08-29T19:02:40.816Z,100705.13
2017-08-29T19:04:43.293Z,100701.60
2017-08-29T19:06:46.462Z,100699.14
2017-08-29T19:08:49.029Z,100697.66
2017-08-29T19:10:51.525Z,100696.53
2017-08-29T19:12:53.993Z,100693.22
2017-08-29T19:14:56.996Z,100694.89
2017-08-29T19:16:59.492Z,100698.73
2017-08-29T19:19:01.980Z,100693.53
2017-08-29T19:21:05.082Z,100698.58
2017-08-29T19:23:07.630Z,100703.55
2017-08-29T19:25:10.213Z,100696.27
2017-08-29T19:27:12.754Z,100699.17
2017-08-29T19:29:15.263Z,100698.50
2017-08-29T19:31:18.065Z,100700.77
2017-08-29T19:33:21.586Z,100700.11
2017-08-29T19:35:24.178Z,100695.15
2017-08-29T19:37:26.649Z,100694.53
2017-08-29T19:39:29.792Z,100692.52
2017-08-29T19:41:32.506Z,100689.55
2017-08-29T19:43:35.022Z,100690.43
2017-08-29T19:45:37.572Z,100682.45
2017-08-29T19:47:40.082Z,100689.64
2017-08-29T19:49:42.583Z,100693.73
2017-08-29T19:51:45.929Z,100685.84
2017-08-29T19:53:49.600Z,100681.75
2017-08-29T19:55:52.222Z,100687.77
2017-08-29T19:57:54.799Z,100685.86
2017-08-29T19:59:57.279Z,100686.05
2017-08-29T20:01:59.769Z,100682.14
2017-08-29T20:04:02.409Z,100682.56
2017-08-29T20:06:04.907Z,100675.59
2017-08-29T20:08:07.442Z,100672.88
2017-08-29T20:10:09.974Z,100673.52
2017-08-29T20:12:12.511Z,100676.06
2017-08-29T20:14:15.020Z,100673.98
2017-08-29T20:16:17.561Z,100672.81
2017-08-29T20:18:20.066Z,100672.00
2017-08-29T20:20:22.566Z,100679.37
2017-08-29T20:22:25.237Z,100673.52
2017-08-29T20:24:28.285Z,100676.89
2017-08-29T20:26:30.770Z,100677.48
2017-08-29T20:28:33.335Z,100677.26
2017-08-29T20:30:35.839Z,100669.72
2017-08-29T20:32:38.369Z,100675.34
2017-08-29T20:34:40.906Z,100672.79
2017-08-29T20:36:43.392Z,100669.11
2017-08-29T20:38:45.869Z,100678.08
2017-08-29T20:40:48.455Z,100681.86
2017-08-29T20:42:50.940Z,100679.97
2017-08-29T20:44:53.434Z,100686.73
2017-08-29T20:46:56.070Z,100677.72
2017-08-29T20:48:58.549Z,100690.48
2017-08-29T20:51:01.025Z,100702.42
2017-08-29T20:53:03.550Z,100696.86
2017-08-29T20:55:06.062Z,100694.22
2017-08-29T20:57:08.544Z,100701.96
2017-08-29T20:59:11.109Z,100699.62
2017-08-29T21:01:13.591Z,100707.05
2017-08-29T21:03:16.057Z,100696.25
2017-08-29T21:05:18.583Z,100692.69
2017-08-29T21:07:21.075Z,100691.13
2017-08-29T21:09:23.547Z,100691.06
2017-08-29T21:11:26.100Z,100686.30
2017-08-29T21:13:28.617Z,100685.86
2017-08-29T21:15:31.093Z,100686.48
2017-08-29T21:17:33.624Z,100682.03
2017-08-29T21:19:36.126Z,100687.57
2017-08-29T21:21:38.602Z,100691.06
2017-08-29T21:23:41.215Z,100681.18
2017-08-29T21:25:43.701Z,100688.78
2017-08-29T21:27:46.207Z,100683.09
2017-08-29T21:29:48.762Z,100688.34
2017-08-29T21:31:51.255Z,100684.31
2017-08-29T21:33:53.750Z,100681.42
2017-08-29T21:35:57.661Z,100681.38
2017-08-29T21:38:00.142Z,100674.45
2017-08-29T21:40:02.608Z,100680.78
2017-08-29T21:42:05.153Z,100687.70
2017-08-29T21:44:07.647Z,100687.72
2017-08-29T21:46:10.126Z,100693.59
2017-08-29T21:48:12.664Z,100680.84
2017-08-29T21:50:15.133Z,100673.61
2017-08-29T21:52:17.612Z,100678.77
2017-08-29T21:54:20.146Z,100677.86
2017-08-29T21:56:22.604Z,100676.12
2017-08-29T21:58:25.087Z,100675.99
2017-08-29T22:00:30.605Z,100671.75
2017-08-29T22:02:33.094Z,100667.70
2017-08-29T22:04:35.581Z,100666.73
2017-08-29T22:06:38.110Z,100668.47
2017-08-29T22:08:40.579Z,100671.94
2017-08-29T22:10:43.047Z,100663.66
2017-08-29T22:12:45.589Z,100668.97
2017-08-29T22:14:48.078Z,100658.78
2017-08-29T22:16:50.552Z,100654.16
2017-08-29T22:18:53.091Z,100650.65
2017-08-29T22:20:55.557Z,100644.80
2017-08-29T22:22:58.025Z,100640.86
2017-08-29T22:25:00.719Z,100644.94
2017-08-29T22:27:03.190Z,100645.08
2017-08-29T22:29:05.658Z,100647.69
2017-08-29T22:31:08.185Z,100642.91
2017-08-29T22:33:10.677Z,100650.20
2017-08-29T22:35:13.181Z,100644.31
2017-08-29T22:37:15.718Z,100644.94
2017-08-29T22:39:18.204Z,100646.02
2017-08-29T22:41:20.668Z,100641.66
2017-08-29T22:43:23.235Z,100643.34
2017-08-29T22:45:25.700Z,100650.86
2017-08-29T22:47:28.172Z,100652.01
2017-08-29T22:49:30.689Z,100650.44
2017-08-29T22:51:33.149Z,100645.56
2017-08-29T22:53:35.628Z,100639.46
2017-08-29T22:55:38.180Z,100630.82
2017-08-29T22:57:40.649Z,100627.75
2017-08-29T22:59:43.118Z,100630.75
2017-08-29T23:01:45.652Z,100637.16
2017-08-29T23:03:48.132Z,100642.80
2017-08-29T23:05:50.594Z,100635.86
2017-08-29T23:07:53.141Z,100633.98
2017-08-29T23:09:55.615Z,100635.81
2017-08-29T23:11:58.079Z,100634.46
2017-08-29T23:14:00.622Z,100628.83
2017-08-29T23:16:03.089Z,100627.73
2017-08-29T23:18:05.552Z,100625.01
2017-08-29T23:20:08.094Z,100622.42
2017-08-29T23:22:10.735Z,100621.13
2017-08-29T23:24:13.229Z,100620.42
2017-08-29T23:26:16.126Z,100617.89
2017-08-29T23:28:18.601Z,100619.06
2017-08-29T23:30:21.077Z,100613.48
2017-08-29T23:32:23.640Z,100615.23
2017-08-29T23:34:26.114Z,100611.08
2017-08-29T23:36:28.585Z,100607.88
2017-08-29T23:38:31.111Z,100596.84
2017-08-29T23:40:33.597Z,100594.27
2017-08-29T23:42:36.101Z,100594.45
2017-08-29T23:44:38.663Z,100590.61
2017-08-29T23:46:41.148Z,100589.25
2017-08-29T23:48:43.661Z,100590.75
2017-08-29T23:50:46.214Z,100588.05
2017-08-29T23:52:48.714Z,100585.02
2017-08-29T23:54:51.203Z,100584.09
2017-08-29T23:59:02.678Z,100575.81
